createdAt,value
2023-01-06T00:01:36.525Z,4.60
2023-01-06T00:04:03.667Z,4.60
2023-01-06T00:06:31.651Z,5.20
2023-01-06T00:09:01.821Z,4.10
2023-01-06T00:11:30.256Z,7.80
2023-01-06T00:13:57.016Z,7.10
2023-01-06T00:16:24.262Z,5.80
2023-01-06T00:18:58.107Z,5.20
2023-01-06T00:21:25.526Z,6.20
2023-01-06T00:23:52.267Z,7.30
2023-01-06T00:26:18.931Z,5.90
2023-01-06T00:28:45.658Z,7.30
2023-01-06T00:31:15.434Z,6.10
2023-01-06T00:33:42.866Z,5.90
2023-01-06T00:36:11.591Z,10.90
2023-01-06T00:38:39.225Z,6.50
2023-01-06T00:41:08.015Z,6.80
2023-01-06T00:43:34.408Z,5.30
2023-01-06T00:46:02.092Z,7.30
2023-01-06T00:48:28.675Z,8.60
2023-01-06T00:51:01.000Z,7.90
2023-01-06T00:53:27.441Z,5.10
2023-01-06T00:56:00.596Z,6.00
2023-01-06T00:58:31.359Z,5.20
2023-01-06T01:00:57.928Z,5.50
2023-01-06T01:03:25.161Z,6.60
2023-01-06T01:05:51.622Z,5.00
2023-01-06T01:08:18.059Z,5.20
2023-01-06T01:10:44.482Z,4.60
2023-01-06T01:13:11.036Z,7.50
2023-01-06T01:15:37.604Z,5.20
2023-01-06T01:18:04.122Z,5.30
2023-01-06T01:20:30.560Z,5.10
2023-01-06T01:22:57.094Z,6.50
2023-01-06T01:25:23.634Z,6.50
2023-01-06T01:27:50.174Z,6.70
2023-01-06T01:30:16.681Z,5.50
2023-01-06T01:32:43.153Z,6.90
2023-01-06T01:35:10.280Z,9.40
2023-01-06T01:37:36.801Z,8.20
2023-01-06T01:40:03.701Z,6.40
2023-01-06T01:42:30.263Z,7.50
2023-01-06T01:45:04.808Z,7.50
2023-01-06T01:47:36.950Z,5.60
2023-01-06T01:50:19.574Z,5.30
2023-01-06T01:52:49.063Z,5.00
2023-01-06T01:55:17.761Z,6.70
2023-01-06T01:57:52.119Z,5.70
2023-01-06T02:00:19.230Z,5.30
2023-01-06T02:02:45.886Z,5.40
2023-01-06T02:05:16.667Z,6.20
2023-01-06T02:07:43.375Z,6.10
2023-01-06T02:10:21.873Z,8.30
2023-01-06T02:12:52.740Z,5.50
2023-01-06T02:15:29.641Z,4.50
2023-01-06T02:18:22.271Z,5.70
2023-01-06T02:21:02.284Z,5.00
2023-01-06T02:23:38.622Z,4.10
2023-01-06T02:26:29.523Z,5.50
2023-01-06T02:29:19.101Z,5.90
2023-01-06T02:31:58.853Z,8.10
2023-01-06T02:34:37.624Z,5.30
2023-01-06T02:37:15.881Z,5.50
2023-01-06T02:39:47.976Z,9.40
2023-01-06T02:42:17.068Z,4.10
2023-01-06T02:44:54.363Z,5.50
2023-01-06T02:47:38.110Z,4.20
2023-01-06T02:50:27.481Z,9.50
2023-01-06T02:53:06.101Z,5.70
2023-01-06T02:55:44.948Z,4.60
2023-01-06T02:58:46.802Z,6.30
2023-01-06T03:01:25.509Z,5.10
2023-01-06T03:03:54.602Z,6.00
2023-01-06T03:06:29.877Z,5.60
2023-01-06T03:08:58.286Z,6.80
2023-01-06T03:11:31.229Z,5.90
2023-01-06T03:14:41.880Z,5.30
2023-01-06T03:17:08.448Z,4.80
2023-01-06T03:19:35.107Z,4.70
2023-01-06T03:22:03.002Z,5.50
2023-01-06T03:24:29.955Z,4.30
2023-01-06T03:26:57.021Z,4.90
2023-01-06T03:29:23.907Z,5.80
2023-01-06T03:32:26.224Z,5.90
2023-01-06T03:35:17.135Z,6.10
2023-01-06T03:38:13.211Z,8.00
2023-01-06T03:40:54.974Z,5.40
2023-01-06T03:44:02.033Z,5.70
2023-01-06T03:46:38.284Z,4.50
2023-01-06T03:49:09.319Z,6.40
2023-01-06T03:51:53.746Z,6.60
2023-01-06T03:54:38.808Z,5.50
2023-01-06T03:57:18.561Z,4.60
2023-01-06T03:59:49.707Z,6.50
2023-01-06T04:02:20.571Z,5.90
2023-01-06T04:05:14.072Z,5.40
2023-01-06T04:07:42.730Z,6.40
2023-01-06T04:10:11.929Z,8.10
2023-01-06T04:12:38.566Z,6.70
2023-01-06T04:15:13.578Z,8.30
2023-01-06T04:17:41.481Z,4.10
2023-01-06T04:20:10.863Z,6.00
2023-01-06T04:22:37.437Z,4.40
2023-01-06T04:25:05.308Z,5.10
2023-01-06T04:27:31.947Z,5.40
2023-01-06T04:29:58.693Z,5.70
2023-01-06T04:32:25.552Z,4.90
2023-01-06T04:34:52.081Z,6.60
2023-01-06T04:37:21.521Z,4.70
2023-01-06T04:39:48.239Z,3.40
2023-01-06T04:42:14.786Z,4.50
2023-01-06T04:44:41.419Z,4.40
2023-01-06T04:47:09.600Z,4.30
2023-01-06T04:49:36.140Z,4.50
2023-01-06T04:52:02.691Z,6.10
2023-01-06T04:54:29.126Z,4.60
2023-01-06T04:56:55.549Z,3.90
2023-01-06T04:59:22.087Z,6.00
2023-01-06T05:01:48.857Z,4.10
2023-01-06T05:04:15.462Z,5.80
2023-01-06T05:06:42.069Z,4.40
2023-01-06T05:09:08.557Z,6.10
2023-01-06T05:11:35.406Z,5.70
2023-01-06T05:14:01.954Z,4.70
2023-01-06T05:16:31.014Z,4.90
2023-01-06T05:18:58.485Z,6.40
2023-01-06T05:21:27.546Z,6.10
2023-01-06T05:23:54.865Z,5.70
2023-01-06T05:26:23.670Z,5.00
2023-01-06T05:28:51.019Z,7.60
2023-01-06T05:31:18.014Z,5.30
2023-01-06T05:33:45.427Z,9.60
2023-01-06T05:36:15.373Z,7.20
2023-01-06T05:38:42.489Z,6.80
2023-01-06T05:41:09.610Z,7.00
2023-01-06T05:43:36.714Z,8.70
2023-01-06T05:46:08.165Z,6.90
2023-01-06T05:51:03.455Z,8.50
2023-01-06T05:53:34.717Z,5.70
2023-01-06T05:56:10.834Z,9.80
2023-01-06T05:58:38.107Z,5.60
2023-01-06T06:01:05.117Z,6.30
2023-01-06T06:03:32.820Z,6.40
2023-01-06T06:06:04.554Z,8.30
2023-01-06T06:08:31.102Z,7.10
2023-01-06T06:11:03.341Z,8.80
2023-01-06T06:13:30.031Z,7.20
2023-01-06T06:16:11.279Z,5.30
2023-01-06T06:18:39.063Z,6.30
2023-01-06T06:21:06.118Z,6.90
2023-01-06T06:23:32.688Z,6.50
2023-01-06T06:25:59.132Z,6.60
2023-01-06T06:28:25.567Z,6.50
2023-01-06T06:30:53.146Z,9.50
2023-01-06T06:33:20.733Z,7.20
2023-01-06T06:35:57.137Z,8.90
2023-01-06T06:38:23.674Z,7.30
2023-01-06T06:40:50.123Z,9.30
2023-01-06T06:43:17.068Z,7.00
2023-01-06T06:45:47.992Z,6.00
2023-01-06T06:48:15.545Z,9.00
2023-01-06T06:50:42.054Z,7.50
2023-01-06T06:53:08.863Z,8.70
2023-01-06T06:55:35.296Z,8.90
2023-01-06T06:58:01.767Z,8.80
2023-01-06T07:00:28.485Z,9.30
2023-01-06T07:02:55.053Z,8.30
2023-01-06T07:05:21.679Z,8.30
2023-01-06T07:07:48.204Z,7.40
2023-01-06T07:10:16.690Z,11.60
2023-01-06T07:12:43.125Z,7.60
2023-01-06T07:15:10.083Z,10.40
2023-01-06T07:17:36.619Z,9.20
2023-01-06T07:20:03.497Z,10.60
2023-01-06T07:22:30.001Z,9.30
2023-01-06T07:24:56.547Z,9.60
2023-01-06T07:27:23.087Z,9.40
2023-01-06T07:29:49.739Z,13.20
2023-01-06T07:32:16.266Z,8.10
2023-01-06T07:34:42.799Z,12.00
2023-01-06T07:37:09.840Z,10.20
2023-01-06T07:39:36.299Z,8.30
2023-01-06T07:42:02.765Z,9.60
2023-01-06T07:44:29.378Z,7.30
2023-01-06T07:46:55.793Z,8.30
2023-01-06T07:49:22.208Z,7.20
2023-01-06T07:51:48.691Z,7.10
2023-01-06T07:54:15.332Z,12.30
2023-01-06T07:56:41.870Z,8.60
2023-01-06T07:59:08.419Z,9.00
2023-01-06T08:01:34.997Z,9.90
2023-01-06T08:04:01.657Z,10.60
2023-01-06T08:06:28.363Z,10.30
2023-01-06T08:08:54.943Z,9.10
2023-01-06T08:11:21.739Z,9.00
2023-01-06T08:13:48.255Z,8.60
2023-01-06T08:16:14.742Z,8.90
2023-01-06T08:18:41.440Z,9.70
2023-01-06T08:21:10.375Z,10.00
2023-01-06T08:23:38.835Z,8.80
2023-01-06T08:26:08.387Z,10.30
2023-01-06T08:28:35.574Z,8.80
2023-01-06T08:31:02.997Z,11.00
2023-01-06T08:33:29.521Z,11.20
2023-01-06T08:36:00.292Z,12.20
2023-01-06T08:38:27.487Z,8.80
2023-01-06T08:40:55.089Z,9.90
2023-01-06T08:43:21.902Z,11.40
2023-01-06T08:45:48.946Z,11.40
2023-01-06T08:48:16.108Z,7.30
2023-01-06T08:50:43.874Z,10.80
2023-01-06T08:53:11.444Z,8.70
2023-01-06T08:55:39.684Z,8.70
2023-01-06T08:58:06.973Z,8.90
2023-01-06T09:00:33.618Z,9.70
2023-01-06T09:03:00.264Z,10.40
2023-01-06T09:05:27.655Z,13.10
2023-01-06T09:07:54.078Z,12.30
2023-01-06T09:10:21.519Z,7.70
2023-01-06T09:12:50.204Z,9.30
2023-01-06T09:15:17.316Z,12.90
2023-01-06T09:17:44.105Z,8.70
2023-01-06T09:20:11.281Z,20.00
2023-01-06T09:22:38.002Z,11.10
2023-01-06T09:25:05.129Z,9.80
2023-01-06T09:27:31.699Z,12.60
2023-01-06T09:29:58.243Z,14.50
2023-01-06T09:32:24.660Z,12.00
2023-01-06T09:34:51.233Z,16.10
2023-01-06T09:37:17.804Z,16.60
2023-01-06T09:39:44.407Z,8.50
2023-01-06T09:42:24.473Z,11.20
2023-01-06T09:45:26.042Z,12.10
2023-01-06T09:47:58.374Z,7.00
2023-01-06T09:50:46.481Z,7.20
2023-01-06T09:53:15.672Z,6.30
2023-01-06T09:55:52.552Z,8.40
2023-01-06T09:58:25.223Z,6.00
2023-01-06T10:00:55.209Z,5.80
2023-01-06T10:03:28.087Z,6.60
2023-01-06T10:06:30.655Z,5.70
2023-01-06T10:09:28.905Z,5.10
2023-01-06T10:12:08.901Z,4.20
2023-01-06T10:14:51.695Z,7.30
2023-01-06T10:17:49.250Z,13.00
2023-01-06T10:20:40.885Z,7.90
2023-01-06T10:25:50.228Z,9.60
2023-01-06T10:28:24.026Z,9.30
2023-01-06T10:30:54.376Z,13.40
2023-01-06T10:33:30.675Z,6.70
2023-01-06T10:35:59.040Z,11.30
2023-01-06T10:38:39.615Z,7.50
2023-01-06T10:41:22.031Z,7.20
2023-01-06T10:43:48.567Z,6.20
2023-01-06T10:46:16.485Z,7.20
2023-01-06T10:48:44.093Z,5.20
2023-01-06T10:51:39.940Z,5.60
2023-01-06T10:54:15.689Z,6.90
2023-01-06T10:56:48.671Z,12.00
2023-01-06T10:59:15.322Z,8.00
2023-01-06T11:01:49.566Z,6.10
2023-01-06T11:04:16.484Z,7.00
2023-01-06T11:06:54.671Z,6.20
2023-01-06T11:09:32.341Z,7.20
2023-01-06T11:12:09.603Z,8.50
2023-01-06T11:14:37.063Z,12.30
2023-01-06T11:17:16.001Z,11.20
2023-01-06T11:19:45.421Z,8.00
2023-01-06T11:22:32.218Z,7.30
2023-01-06T11:24:59.054Z,8.20
2023-01-06T11:27:25.798Z,7.00
2023-01-06T11:29:52.340Z,6.90
2023-01-06T11:32:25.823Z,9.40
2023-01-06T11:35:00.679Z,9.10
2023-01-06T11:37:36.460Z,6.90
2023-01-06T11:40:21.823Z,7.50
2023-01-06T11:42:51.712Z,7.50
2023-01-06T11:45:59.607Z,7.80
2023-01-06T11:48:36.009Z,9.30
2023-01-06T11:51:07.879Z,7.80
2023-01-06T11:53:35.166Z,8.50
2023-01-06T11:56:03.227Z,6.60
2023-01-06T11:58:43.062Z,7.00
2023-01-06T12:01:48.206Z,8.40
2023-01-06T12:04:30.115Z,7.20
2023-01-06T12:07:03.383Z,7.90
2023-01-06T12:09:35.277Z,7.80
2023-01-06T12:12:07.458Z,6.80
2023-01-06T12:14:39.634Z,8.80
2023-01-06T12:17:34.127Z,8.20
2023-01-06T12:20:13.507Z,7.00
2023-01-06T12:22:49.128Z,9.20
2023-01-06T12:25:23.334Z,8.90
2023-01-06T12:27:56.509Z,9.00
2023-01-06T12:30:54.131Z,8.50
2023-01-06T12:33:23.407Z,7.80
2023-01-06T12:35:54.406Z,6.10
2023-01-06T12:38:46.180Z,6.70
2023-01-06T12:41:36.265Z,7.80
2023-01-06T12:44:32.201Z,8.20
2023-01-06T12:46:58.842Z,8.60
2023-01-06T12:49:50.683Z,8.60
2023-01-06T12:52:40.160Z,9.20
2023-01-06T12:55:09.840Z,10.80
2023-01-06T12:57:51.555Z,10.80
2023-01-06T13:00:34.919Z,8.20
2023-01-06T13:03:37.167Z,8.60
2023-01-06T13:06:13.142Z,10.00
2023-01-06T13:09:01.164Z,9.60
2023-01-06T13:11:51.739Z,9.40
2023-01-06T13:15:03.662Z,17.20
2023-01-06T13:17:38.449Z,12.50
2023-01-06T13:20:14.513Z,11.50
2023-01-06T13:23:21.512Z,12.10
2023-01-06T13:25:57.020Z,12.20
2023-01-06T13:29:01.072Z,10.50
2023-01-06T13:31:30.584Z,8.80
2023-01-06T13:34:19.617Z,8.60
2023-01-06T13:37:17.481Z,9.90
2023-01-06T13:39:54.075Z,10.10
2023-01-06T13:42:35.346Z,8.50
2023-01-06T13:45:04.646Z,7.80
2023-01-06T13:47:31.387Z,10.50
2023-01-06T13:49:58.801Z,11.00
2023-01-06T13:52:28.951Z,9.50
2023-01-06T13:55:17.838Z,12.00
2023-01-06T13:57:44.375Z,12.30
2023-01-06T14:00:10.815Z,12.10
2023-01-06T14:02:37.518Z,17.90
2023-01-06T14:05:24.795Z,16.50
2023-01-06T14:07:57.406Z,13.00
2023-01-06T14:10:34.966Z,14.10
2023-01-06T14:13:04.570Z,10.40
2023-01-06T14:15:33.568Z,12.20
2023-01-06T14:18:02.208Z,14.00
2023-01-06T14:20:37.742Z,14.50
2023-01-06T14:23:18.489Z,12.90
2023-01-06T14:25:51.378Z,13.00
2023-01-06T14:28:38.170Z,12.90
2023-01-06T14:31:26.760Z,11.80
2023-01-06T14:33:56.978Z,12.60
2023-01-06T14:36:25.415Z,12.70
2023-01-06T14:38:57.961Z,12.10
2023-01-06T14:41:33.091Z,12.00
2023-01-06T14:44:05.521Z,12.30
2023-01-06T14:46:38.735Z,12.40
2023-01-06T14:49:13.187Z,14.00
2023-01-06T14:51:44.139Z,10.80
2023-01-06T14:54:26.855Z,11.90
2023-01-06T14:56:58.941Z,15.40
2023-01-06T14:59:26.501Z,18.10
2023-01-06T15:02:09.129Z,18.50
2023-01-06T15:04:35.971Z,15.30
2023-01-06T15:07:20.098Z,20.50
2023-01-06T15:09:48.835Z,21.00
2023-01-06T15:12:29.269Z,25.30
2023-01-06T15:14:56.457Z,30.60
2023-01-06T15:17:23.361Z,28.40
2023-01-06T15:19:52.749Z,28.50
2023-01-06T15:22:24.155Z,26.90
2023-01-06T15:27:19.067Z,33.80
2023-01-06T15:29:53.807Z,28.90
2023-01-06T15:32:22.092Z,32.00
2023-01-06T15:34:49.716Z,29.10
2023-01-06T15:37:22.796Z,34.60
2023-01-06T15:39:50.491Z,37.90
2023-01-06T15:42:21.657Z,32.80
2023-01-06T15:44:59.440Z,34.50
2023-01-06T15:47:32.854Z,36.40
2023-01-06T15:50:03.584Z,51.60
2023-01-06T15:52:35.382Z,60.00
2023-01-06T15:55:05.463Z,57.50
2023-01-06T15:57:37.205Z,57.10
2023-01-06T16:00:19.136Z,57.10
2023-01-06T16:02:48.136Z,58.00
2023-01-06T16:05:32.756Z,65.40
2023-01-06T16:08:04.779Z,62.90
2023-01-06T16:10:36.357Z,70.30
2023-01-06T16:13:24.153Z,65.60
2023-01-06T16:16:02.195Z,183.30
2023-01-06T16:18:34.029Z,94.70
2023-01-06T16:21:14.239Z,114.90
2023-01-06T16:23:41.257Z,89.50
2023-01-06T16:26:09.614Z,195.60
2023-01-06T16:28:42.477Z,142.00
2023-01-06T16:31:11.735Z,154.70
2023-01-06T16:33:45.539Z,216.20
2023-01-06T16:36:17.097Z,184.40
2023-01-06T16:38:44.344Z,109.40
2023-01-06T16:41:19.192Z,104.20
2023-01-06T16:43:46.654Z,82.00
2023-01-06T16:46:18.650Z,83.40
2023-01-06T16:48:45.136Z,96.20
2023-01-06T16:51:18.642Z,88.70
2023-01-06T16:53:46.025Z,95.30
2023-01-06T16:56:19.426Z,95.40
2023-01-06T16:58:46.417Z,77.10
2023-01-06T17:01:16.637Z,73.80
2023-01-06T17:03:43.731Z,68.90
2023-01-06T17:06:28.425Z,60.70
2023-01-06T17:09:00.688Z,65.40
2023-01-06T17:11:29.585Z,53.80
2023-01-06T17:14:05.953Z,64.90
2023-01-06T17:16:35.991Z,65.30
2023-01-06T17:19:13.777Z,63.90
2023-01-06T17:21:41.068Z,64.70
2023-01-06T17:24:18.885Z,63.60
2023-01-06T17:27:00.330Z,75.90
2023-01-06T17:29:30.554Z,69.40
2023-01-06T17:32:01.089Z,72.00
2023-01-06T17:34:32.466Z,53.40
2023-01-06T17:37:03.540Z,74.40
2023-01-06T17:39:40.073Z,71.70
2023-01-06T17:42:12.536Z,67.40
2023-01-06T17:44:44.998Z,69.40
2023-01-06T17:47:23.436Z,66.80
2023-01-06T17:50:00.992Z,67.00
2023-01-06T17:52:39.443Z,67.50
2023-01-06T17:55:08.753Z,71.10
2023-01-06T17:57:35.391Z,72.20
2023-01-06T18:00:04.713Z,72.20
2023-01-06T18:02:40.055Z,69.70
2023-01-06T18:05:24.809Z,80.90
2023-01-06T18:08:00.056Z,71.10
2023-01-06T18:10:26.519Z,113.60
2023-01-06T18:12:56.604Z,118.30
2023-01-06T18:15:35.384Z,100.40
2023-01-06T18:18:32.162Z,83.20
2023-01-06T18:21:10.811Z,81.10
2023-01-06T18:23:37.320Z,73.90
2023-01-06T18:26:26.334Z,79.30
2023-01-06T18:29:13.718Z,78.30
2023-01-06T18:31:41.108Z,78.60
2023-01-06T18:34:40.928Z,83.80
2023-01-06T18:37:07.771Z,129.90
2023-01-06T18:39:41.505Z,153.80
2023-01-06T18:42:27.173Z,158.50
2023-01-06T18:45:22.063Z,135.00
2023-01-06T18:47:59.355Z,141.90
2023-01-06T18:50:48.376Z,126.80
2023-01-06T18:53:14.990Z,100.30
2023-01-06T18:55:47.656Z,92.10
2023-01-06T18:58:40.430Z,93.50
2023-01-06T19:01:34.437Z,103.00
2023-01-06T19:04:22.905Z,111.40
2023-01-06T19:06:52.752Z,121.90
2023-01-06T19:09:37.530Z,185.20
2023-01-06T19:12:15.635Z,188.70
2023-01-06T19:14:46.837Z,139.50
2023-01-06T19:17:27.031Z,124.40
2023-01-06T19:19:55.158Z,106.10
2023-01-06T19:22:26.955Z,124.80
2023-01-06T19:25:07.044Z,147.10
2023-01-06T19:27:43.475Z,121.90
2023-01-06T19:30:12.827Z,118.10
2023-01-06T19:32:40.081Z,115.40
2023-01-06T19:35:16.077Z,117.60
2023-01-06T19:37:42.577Z,122.10
2023-01-06T19:40:25.410Z,117.50
2023-01-06T19:42:57.570Z,127.20
2023-01-06T19:45:32.458Z,178.60
2023-01-06T19:48:00.490Z,176.00
2023-01-06T19:50:27.034Z,132.60
2023-01-06T19:52:58.855Z,147.70
2023-01-06T19:55:28.801Z,120.70
2023-01-06T19:57:58.673Z,133.60
2023-01-06T20:00:31.548Z,132.40
2023-01-06T20:03:00.863Z,119.20
2023-01-06T20:05:28.989Z,148.30
2023-01-06T20:07:55.551Z,154.30
2023-01-06T20:10:22.190Z,149.40
2023-01-06T20:12:49.424Z,144.10
2023-01-06T20:15:16.278Z,120.70
2023-01-06T20:17:42.903Z,135.00
2023-01-06T20:20:10.096Z,119.90
2023-01-06T20:22:36.833Z,95.90
2023-01-06T20:25:04.079Z,97.10
2023-01-06T20:27:30.734Z,94.10
2023-01-06T20:29:57.257Z,98.90
2023-01-06T20:32:23.797Z,101.40
2023-01-06T20:34:50.252Z,124.60
2023-01-06T20:37:16.666Z,117.50
2023-01-06T20:39:43.223Z,99.20
2023-01-06T20:42:11.908Z,107.50
2023-01-06T20:44:39.586Z,105.40
2023-01-06T20:47:06.108Z,95.60
2023-01-06T20:49:32.563Z,84.90
2023-01-06T20:51:59.066Z,90.80
2023-01-06T20:54:26.336Z,100.20
2023-01-06T20:56:52.756Z,98.00
2023-01-06T20:59:19.373Z,99.70
2023-01-06T21:01:46.087Z,96.90
2023-01-06T21:04:12.885Z,102.20
2023-01-06T21:06:39.448Z,96.60
2023-01-06T21:09:06.078Z,89.80
2023-01-06T21:11:32.521Z,107.80
2023-01-06T21:13:59.066Z,111.20
2023-01-06T21:16:25.853Z,141.70
2023-01-06T21:18:52.555Z,114.00
2023-01-06T21:21:18.979Z,127.30
2023-01-06T21:23:45.643Z,120.50
2023-01-06T21:26:12.278Z,113.90
2023-01-06T21:28:38.853Z,103.50
2023-01-06T21:31:05.811Z,98.20
2023-01-06T21:33:32.335Z,88.10
2023-01-06T21:35:59.469Z,94.90
2023-01-06T21:38:26.214Z,90.20
2023-01-06T21:40:52.662Z,93.40
2023-01-06T21:43:19.197Z,87.10
2023-01-06T21:45:45.888Z,84.00
2023-01-06T21:48:13.455Z,91.30
2023-01-06T21:50:44.932Z,122.90
2023-01-06T21:53:13.653Z,95.90
2023-01-06T21:55:40.147Z,94.20
2023-01-06T21:58:06.595Z,85.80
2023-01-06T22:00:33.078Z,96.50
2023-01-06T22:02:59.552Z,98.80
2023-01-06T22:05:26.137Z,97.60
2023-01-06T22:07:55.468Z,97.00
2023-01-06T22:10:24.554Z,84.80
2023-01-06T22:12:53.576Z,86.50
2023-01-06T22:15:21.947Z,69.60
2023-01-06T22:17:49.527Z,89.60
2023-01-06T22:20:16.551Z,97.80
2023-01-06T22:22:43.628Z,100.00
2023-01-06T22:25:10.289Z,100.60
2023-01-06T22:27:36.852Z,94.50
2023-01-06T22:30:04.747Z,111.30
2023-01-06T22:32:31.218Z,102.90
2023-01-06T22:34:57.647Z,94.50
2023-01-06T22:37:24.089Z,94.50
2023-01-06T22:39:50.496Z,93.70
2023-01-06T22:42:16.941Z,85.00
2023-01-06T22:44:43.448Z,89.80
2023-01-06T22:47:09.980Z,85.70
2023-01-06T22:49:36.644Z,95.30
2023-01-06T22:52:03.184Z,113.70
2023-01-06T22:54:29.708Z,157.30
2023-01-06T22:56:56.249Z,129.50
2023-01-06T22:59:22.698Z,105.00
2023-01-06T23:01:49.199Z,89.70
2023-01-06T23:04:15.747Z,96.70
2023-01-06T23:06:42.201Z,89.10
2023-01-06T23:09:08.759Z,89.50
2023-01-06T23:11:35.939Z,76.50
2023-01-06T23:14:02.380Z,81.50
2023-01-06T23:16:28.800Z,71.70
2023-01-06T23:18:55.426Z,68.90
2023-01-06T23:21:24.282Z,69.50
2023-01-06T23:23:51.918Z,65.90
2023-01-06T23:26:21.417Z,76.80
2023-01-06T23:28:48.158Z,82.00
2023-01-06T23:31:18.440Z,89.10
2023-01-06T23:33:47.614Z,69.70
2023-01-06T23:36:15.889Z,68.00
2023-01-06T23:38:43.016Z,71.80
2023-01-06T23:41:15.687Z,57.70
2023-01-06T23:43:43.256Z,54.10
2023-01-06T23:46:22.515Z,52.90
2023-01-06T23:48:49.593Z,54.70
2023-01-06T23:51:16.989Z,50.20
2023-01-06T23:53:44.247Z,51.00
2023-01-06T23:56:22.116Z,52.10
2023-01-06T23:58:51.129Z,45.60
